createdAt,value
2023-01-17T00:00:53.615Z,6.13
2023-01-17T00:03:24.993Z,6.08
2023-01-17T00:06:12.106Z,6.01
2023-01-17T00:08:59.039Z,5.95
2023-01-17T00:11:27.866Z,6.00
2023-01-17T00:13:56.767Z,5.99
2023-01-17T00:16:25.583Z,5.99
2023-01-17T00:19:12.585Z,5.98
2023-01-17T00:22:34.561Z,5.92
2023-01-17T00:25:21.669Z,5.95
2023-01-17T00:27:50.222Z,5.94
2023-01-17T00:30:18.898Z,5.90
2023-01-17T00:32:47.558Z,5.89
2023-01-17T00:35:16.962Z,5.93
2023-01-17T00:37:45.709Z,5.93
2023-01-17T00:40:14.535Z,5.96
2023-01-17T00:42:43.127Z,5.96
2023-01-17T00:45:30.225Z,6.00
2023-01-17T00:48:17.380Z,5.97
2023-01-17T00:51:04.620Z,5.91
2023-01-17T00:53:51.882Z,5.90
2023-01-17T00:56:38.972Z,5.86
2023-01-17T00:59:26.208Z,5.83
2023-01-17T01:02:20.948Z,5.81
2023-01-17T01:05:08.082Z,5.83
2023-01-17T01:07:55.191Z,5.84
2023-01-17T01:10:42.285Z,5.80
2023-01-17T01:13:29.331Z,5.76
2023-01-17T01:16:21.582Z,5.75
2023-01-17T01:19:08.441Z,5.75
2023-01-17T01:21:55.495Z,5.81
2023-01-17T01:24:42.839Z,5.79
2023-01-17T01:27:29.981Z,5.80
2023-01-17T01:30:17.055Z,5.81
2023-01-17T01:33:04.475Z,5.79
2023-01-17T01:35:33.304Z,5.81
2023-01-17T01:38:03.546Z,5.87
2023-01-17T01:40:32.407Z,5.87
2023-01-17T01:43:05.849Z,5.84
2023-01-17T01:45:34.781Z,5.86
2023-01-17T01:48:13.441Z,5.83
2023-01-17T01:50:42.301Z,5.78
2023-01-17T01:53:11.817Z,5.72
2023-01-17T01:55:42.665Z,5.73
2023-01-17T01:58:21.835Z,5.79
2023-01-17T02:00:51.617Z,5.83
2023-01-17T02:03:28.093Z,5.89
2023-01-17T02:06:05.124Z,5.94
2023-01-17T02:08:34.779Z,5.94
2023-01-17T02:11:03.595Z,5.96
2023-01-17T02:13:32.414Z,5.96
2023-01-17T02:16:15.574Z,5.93
2023-01-17T02:19:01.751Z,5.97
2023-01-17T02:21:58.760Z,5.92
2023-01-17T02:25:03.093Z,5.86
2023-01-17T02:28:18.155Z,5.85
2023-01-17T02:30:51.612Z,5.84
2023-01-17T02:33:54.859Z,5.84
2023-01-17T02:36:36.647Z,5.78
2023-01-17T02:39:44.097Z,5.77
2023-01-17T02:42:21.686Z,5.74
2023-01-17T02:44:50.424Z,5.73
2023-01-17T02:47:30.738Z,5.69
2023-01-17T02:50:14.798Z,5.64
2023-01-17T02:53:29.099Z,5.62
2023-01-17T02:56:13.657Z,5.63
2023-01-17T02:59:05.367Z,5.61
2023-01-17T03:02:41.570Z,5.55
2023-01-17T03:05:20.746Z,5.46
2023-01-17T03:07:52.277Z,5.41
2023-01-17T03:10:22.088Z,5.29
2023-01-17T03:12:56.028Z,5.26
2023-01-17T03:15:24.882Z,5.17
2023-01-17T03:17:58.921Z,5.12
2023-01-17T03:20:27.741Z,5.08
2023-01-17T03:22:56.693Z,5.06
2023-01-17T03:25:25.387Z,5.05
2023-01-17T03:27:54.145Z,5.06
2023-01-17T03:30:23.341Z,5.01
2023-01-17T03:32:52.152Z,4.97
2023-01-17T03:35:21.076Z,4.94
2023-01-17T03:37:49.828Z,4.93
2023-01-17T03:40:18.759Z,4.93
2023-01-17T03:42:47.511Z,4.87
2023-01-17T03:45:16.469Z,4.93
2023-01-17T03:47:45.276Z,4.95
2023-01-17T03:50:14.154Z,4.96
2023-01-17T03:52:42.914Z,4.96
2023-01-17T03:55:11.855Z,4.93
2023-01-17T03:57:40.846Z,4.97
2023-01-17T04:00:11.091Z,4.97
2023-01-17T04:02:39.911Z,4.95
2023-01-17T04:05:09.910Z,4.92
2023-01-17T04:07:38.693Z,4.89
2023-01-17T04:10:08.404Z,4.87
2023-01-17T04:12:37.103Z,4.87
2023-01-17T04:15:06.504Z,4.87
2023-01-17T04:17:35.642Z,4.87
2023-01-17T04:20:05.230Z,4.86
2023-01-17T04:22:34.057Z,4.85
2023-01-17T04:25:05.533Z,4.84
2023-01-17T04:27:34.254Z,4.84
2023-01-17T04:30:02.994Z,4.80
2023-01-17T04:32:31.761Z,4.77
2023-01-17T04:35:00.479Z,4.74
2023-01-17T04:37:29.207Z,4.71
2023-01-17T04:39:57.967Z,4.70
2023-01-17T04:42:26.856Z,4.70
2023-01-17T04:44:55.687Z,4.73
2023-01-17T04:47:24.530Z,4.80
2023-01-17T04:49:53.866Z,4.91
2023-01-17T04:52:22.624Z,4.96
2023-01-17T04:54:53.002Z,5.00
2023-01-17T04:57:21.696Z,5.07
2023-01-17T04:59:50.479Z,5.23
2023-01-17T05:02:19.488Z,5.28
2023-01-17T05:04:48.400Z,5.30
2023-01-17T05:07:17.173Z,5.26
2023-01-17T05:09:45.895Z,5.26
2023-01-17T05:12:14.670Z,5.22
2023-01-17T05:14:43.425Z,5.28
2023-01-17T05:17:12.273Z,5.36
2023-01-17T05:19:41.158Z,5.37
2023-01-17T05:22:15.952Z,5.42
2023-01-17T05:24:46.509Z,5.40
2023-01-17T05:27:15.833Z,5.43
2023-01-17T05:29:45.710Z,5.51
2023-01-17T05:32:14.479Z,5.52
2023-01-17T05:34:43.281Z,5.50
2023-01-17T05:37:12.117Z,5.49
2023-01-17T05:39:41.376Z,5.49
2023-01-17T05:42:11.427Z,5.50
2023-01-17T05:44:40.917Z,5.52
2023-01-17T05:47:09.752Z,5.52
2023-01-17T05:49:39.092Z,5.53
2023-01-17T05:52:07.991Z,5.54
2023-01-17T05:54:36.741Z,5.57
2023-01-17T05:57:05.537Z,5.58
2023-01-17T05:59:37.262Z,5.58
2023-01-17T06:02:06.377Z,5.60
2023-01-17T06:04:35.295Z,5.62
2023-01-17T06:07:04.209Z,5.63
2023-01-17T06:09:33.012Z,5.64
2023-01-17T06:12:01.768Z,5.66
2023-01-17T06:14:30.507Z,5.71
2023-01-17T06:16:59.256Z,5.72
2023-01-17T06:19:27.972Z,5.74
2023-01-17T06:21:56.703Z,5.85
2023-01-17T06:24:25.474Z,5.95
2023-01-17T06:26:54.199Z,6.12
2023-01-17T06:29:23.044Z,6.20
2023-01-17T06:31:51.957Z,6.24
2023-01-17T06:34:20.819Z,6.27
2023-01-17T06:36:49.539Z,6.32
2023-01-17T06:39:18.260Z,6.39
2023-01-17T06:41:47.060Z,6.38
2023-01-17T06:44:16.195Z,6.34
2023-01-17T06:46:45.277Z,6.30
2023-01-17T06:49:15.404Z,6.33
2023-01-17T06:51:44.269Z,6.38
2023-01-17T06:54:13.307Z,6.35
2023-01-17T06:56:42.061Z,6.40
2023-01-17T06:59:10.925Z,6.49
2023-01-17T07:01:40.390Z,6.55
2023-01-17T07:04:09.215Z,6.51
2023-01-17T07:06:38.140Z,6.55
2023-01-17T07:09:06.882Z,6.57
2023-01-17T07:11:35.756Z,6.62
2023-01-17T07:14:04.482Z,6.59
2023-01-17T07:16:34.707Z,6.57
2023-01-17T07:19:03.703Z,6.58
2023-01-17T07:21:32.510Z,6.58
2023-01-17T07:24:01.291Z,6.64
2023-01-17T07:26:30.063Z,6.67
2023-01-17T07:28:59.073Z,6.70
2023-01-17T07:31:27.865Z,6.78
2023-01-17T07:33:59.442Z,6.81
2023-01-17T07:36:28.455Z,6.81
2023-01-17T07:41:41.545Z,6.87
2023-01-17T07:44:14.085Z,6.93
2023-01-17T07:46:42.978Z,6.93
2023-01-17T07:49:11.803Z,6.90
2023-01-17T07:51:40.749Z,6.96
2023-01-17T07:54:11.828Z,6.89
2023-01-17T07:56:40.632Z,6.89
2023-01-17T07:59:09.444Z,6.91
2023-01-17T08:01:38.535Z,6.88
2023-01-17T08:04:07.547Z,6.86
2023-01-17T08:06:38.028Z,6.93
2023-01-17T08:09:06.782Z,6.99
2023-01-17T08:11:35.543Z,6.99
2023-01-17T08:14:05.034Z,7.00
2023-01-17T08:16:33.803Z,7.01
2023-01-17T08:19:02.576Z,7.02
2023-01-17T08:21:32.458Z,7.02
2023-01-17T08:24:01.201Z,7.06
2023-01-17T08:26:30.395Z,7.13
2023-01-17T08:29:01.206Z,7.17
2023-01-17T08:31:35.712Z,7.20
2023-01-17T08:34:04.651Z,7.26
2023-01-17T08:36:33.510Z,7.33
2023-01-17T08:39:02.308Z,7.39
2023-01-17T08:41:32.516Z,7.41
2023-01-17T08:44:01.324Z,7.47
2023-01-17T08:46:32.090Z,7.50
2023-01-17T08:49:03.017Z,7.60
2023-01-17T08:51:33.058Z,7.68
2023-01-17T08:54:01.798Z,7.77
2023-01-17T08:56:30.629Z,7.87
2023-01-17T08:58:59.493Z,8.00
2023-01-17T09:01:28.405Z,8.12
2023-01-17T09:03:57.292Z,8.08
2023-01-17T09:06:26.156Z,8.21
2023-01-17T09:08:55.062Z,8.28
2023-01-17T09:11:23.816Z,8.42
2023-01-17T09:13:52.548Z,8.51
2023-01-17T09:16:21.317Z,8.55
2023-01-17T09:18:54.676Z,8.62
2023-01-17T09:21:23.878Z,8.59
2023-01-17T09:23:53.868Z,8.62
2023-01-17T09:26:30.334Z,8.61
2023-01-17T09:28:59.282Z,8.58
2023-01-17T09:31:28.365Z,8.63
2023-01-17T09:33:59.024Z,8.57
2023-01-17T09:36:29.364Z,8.46
2023-01-17T09:38:59.211Z,8.43
2023-01-17T09:41:54.506Z,8.41
2023-01-17T09:45:02.382Z,8.59
2023-01-17T09:47:41.466Z,8.78
2023-01-17T09:50:43.995Z,8.96
2023-01-17T09:53:21.075Z,9.02
2023-01-17T09:56:01.394Z,9.05
2023-01-17T09:59:10.733Z,9.02
2023-01-17T10:02:25.003Z,9.24
2023-01-17T10:05:21.006Z,9.03
2023-01-17T10:08:38.271Z,9.08
2023-01-17T10:11:56.104Z,9.22
2023-01-17T10:15:40.644Z,9.23
2023-01-17T10:18:59.559Z,9.24
2023-01-17T10:22:10.511Z,9.36
2023-01-17T10:25:27.586Z,9.27
2023-01-17T10:28:13.487Z,9.18
2023-01-17T10:30:50.683Z,9.18
2023-01-17T10:33:27.616Z,9.15
2023-01-17T10:36:06.167Z,9.14
2023-01-17T10:38:39.055Z,9.05
2023-01-17T10:41:22.608Z,9.05
2023-01-17T10:44:20.462Z,9.00
2023-01-17T10:47:03.728Z,8.99
2023-01-17T10:49:32.614Z,9.07
2023-01-17T10:52:19.379Z,9.09
2023-01-17T10:54:59.287Z,9.08
2023-01-17T10:57:28.458Z,9.08
2023-01-17T11:00:00.887Z,9.14
2023-01-17T11:02:37.044Z,9.14
2023-01-17T11:05:21.943Z,9.20
2023-01-17T11:08:02.941Z,9.31
2023-01-17T11:10:39.926Z,9.44
2023-01-17T11:13:38.904Z,9.51
2023-01-17T11:16:19.601Z,9.66
2023-01-17T11:19:27.923Z,9.57
2023-01-17T11:22:05.052Z,9.52
2023-01-17T11:24:42.199Z,9.52
2023-01-17T11:27:30.458Z,9.60
2023-01-17T11:30:05.272Z,9.65
2023-01-17T11:32:34.932Z,9.66
2023-01-17T11:35:26.274Z,9.67
2023-01-17T11:38:10.988Z,9.69
2023-01-17T11:40:45.130Z,9.72
2023-01-17T11:43:27.794Z,9.78
2023-01-17T11:46:05.854Z,9.96
2023-01-17T11:48:38.907Z,10.07
2023-01-17T11:51:33.372Z,10.22
2023-01-17T11:54:28.352Z,10.35
2023-01-17T11:57:01.832Z,10.47
2023-01-17T11:59:37.695Z,10.52
2023-01-17T12:02:43.631Z,10.56
2023-01-17T12:05:54.005Z,10.57
2023-01-17T12:08:53.047Z,10.43
2023-01-17T12:12:31.044Z,10.57
2023-01-17T12:15:23.500Z,10.68
2023-01-17T12:18:13.711Z,10.58
2023-01-17T12:21:17.598Z,10.60
2023-01-17T12:23:56.246Z,10.61
2023-01-17T12:26:33.837Z,10.70
2023-01-17T12:29:24.742Z,10.72
2023-01-17T12:32:13.694Z,10.71
2023-01-17T12:35:15.759Z,10.58
2023-01-17T12:38:00.261Z,10.58
2023-01-17T12:40:50.045Z,10.52
2023-01-17T12:43:43.403Z,10.46
2023-01-17T12:46:27.391Z,10.49
2023-01-17T12:49:17.186Z,10.43
2023-01-17T12:51:50.471Z,10.46
2023-01-17T12:54:48.214Z,10.50
2023-01-17T12:57:27.747Z,10.43
2023-01-17T13:00:19.865Z,10.41
2023-01-17T13:03:23.326Z,10.43
2023-01-17T13:05:52.725Z,10.42
2023-01-17T13:08:46.776Z,10.39
2023-01-17T13:11:28.853Z,10.34
2023-01-17T13:14:00.070Z,10.30
2023-01-17T13:16:29.046Z,10.30
2023-01-17T13:19:05.182Z,10.30
2023-01-17T13:21:35.592Z,10.30
2023-01-17T13:24:20.860Z,10.32
2023-01-17T13:27:12.581Z,10.38
2023-01-17T13:30:27.747Z,10.41
2023-01-17T13:33:12.393Z,10.46
2023-01-17T13:36:14.005Z,10.61
2023-01-17T13:39:15.991Z,11.31
2023-01-17T13:42:11.105Z,12.26
2023-01-17T13:44:40.005Z,13.00
2023-01-17T13:47:29.900Z,13.62
2023-01-17T13:49:59.518Z,14.38
2023-01-17T13:52:33.181Z,14.60
2023-01-17T13:55:05.578Z,14.97
2023-01-17T13:57:46.951Z,14.80
2023-01-17T14:00:21.657Z,15.18
2023-01-17T14:02:52.871Z,15.16
2023-01-17T14:05:56.251Z,15.35
2023-01-17T14:08:27.476Z,14.82
2023-01-17T14:11:09.834Z,14.58
2023-01-17T14:13:40.248Z,14.61
2023-01-17T14:16:29.358Z,14.29
2023-01-17T14:18:58.269Z,14.27
2023-01-17T14:21:33.681Z,14.36
2023-01-17T14:24:13.358Z,14.65
2023-01-17T14:26:42.117Z,14.21
2023-01-17T14:29:47.220Z,13.61
2023-01-17T14:32:29.739Z,12.84
2023-01-17T14:34:59.178Z,12.35
2023-01-17T14:37:50.805Z,11.95
2023-01-17T14:40:26.565Z,11.44
2023-01-17T14:43:13.240Z,11.21
2023-01-17T14:45:43.909Z,11.08
2023-01-17T14:48:22.665Z,10.83
2023-01-17T14:50:55.050Z,10.67
2023-01-17T14:53:29.166Z,10.54
2023-01-17T14:56:13.372Z,10.28
2023-01-17T14:58:42.660Z,10.16
2023-01-17T15:01:15.928Z,10.03
2023-01-17T15:03:51.657Z,9.90
2023-01-17T15:06:33.388Z,9.80
2023-01-17T15:09:29.045Z,9.69
2023-01-17T15:11:58.326Z,9.58
2023-01-17T15:14:38.361Z,9.49
2023-01-17T15:17:24.661Z,9.41
2023-01-17T15:19:59.822Z,9.31
2023-01-17T15:22:29.947Z,9.28
2023-01-17T15:25:00.387Z,9.27
2023-01-17T15:27:29.459Z,9.23
2023-01-17T15:30:02.543Z,9.16
